^^
Datos históricos de la estación: Murcia-Puente Tocinos
Diario Informe para Mayo 30, 2019 Unidades:  Ambas    Ingés   Métrico
Diario Semanal Mensual Anual
  Máxima: Mínima: Promedio:
Temperatura: 90.1 °F /  32.3 °C 74.3 °F /  23.5 °C 81 °F /  27.2 °C
Punto de rocio: 70 °F /  21.1 °C 58.1 °F /  14.5 °C 66.9 °F /  19.4 °C
Humedad: 84% 35.4% 64%
Velocidad viento: 13mph /  20.9km/h - 6mph /  9.7km/h
Racha viento: 23.5mph /  37.8km/h - -
Viento- - ESE
Presión: 29.9 in /  1012.8 hPa 29.8 in /  1009.6 hPa -
Precipitación: 0 in /  0.0 mm    
 
 
Tabla de datos para Mayo 30, 2019
Hora Temperatura Punto de rocio Presión Viento Velocidad viento Racha viento Humedad Intensidad lluvia(por hora) Nubes
00:04 77.4 °F /  25.2 °C 69.6 °F /  20.9 °C 29.8in /  1009.9hPa NE 6.9mph /  11.1km/h 10.7mph /  17.2km/h 77% 0in /  0.0mm
00:09 77.4 °F /  25.2 °C 69.8 °F /  21 °C 29.8in /  1009.9hPa NE 6.7mph /  10.8km/h 11mph /  17.7km/h 77.6% 0in /  0.0mm
00:14 77.2 °F /  25.1 °C 69.8 °F /  21 °C 29.8in /  1009.9hPa NE 6.2mph /  10km/h 10mph /  16.1km/h 78% 0in /  0.0mm
00:19 77.2 °F /  25.1 °C 69.8 °F /  21 °C 29.8in /  1010.0hPa NE 6.1mph /  9.8km/h 9.7mph /  15.6km/h 78% 0in /  0.0mm
00:24 77 °F /  25 °C 69.6 °F /  20.9 °C 29.8in /  1010.0hPa NE 5.9mph /  9.5km/h 10.4mph /  16.7km/h 78% 0in /  0.0mm
00:29 76.8 °F /  24.9 °C 69.8 °F /  21 °C 29.8in /  1010.0hPa NE 6mph /  9.6km/h 11.5mph /  18.5km/h 78.9% 0in /  0.0mm
00:34 76.8 °F /  24.9 °C 69.8 °F /  21 °C 29.8in /  1010.0hPa NE 6.2mph /  10km/h 12mph /  19.3km/h 79% 0in /  0.0mm
00:39 76.6 °F /  24.8 °C 69.6 °F /  20.9 °C 29.8in /  1010.0hPa NNE 6.1mph /  9.8km/h 12mph /  19.3km/h 79.1% 0in /  0.0mm
00:44 76.6 °F /  24.8 °C 70 °F /  21.1 °C 29.8in /  1010.0hPa NNE 5.9mph /  9.5km/h 11.4mph /  18.3km/h 80% 0in /  0.0mm
00:49 76.5 °F /  24.7 °C 69.8 °F /  21 °C 29.8in /  1010.0hPa NE 6mph /  9.7km/h 12mph /  19.3km/h 80% 0in /  0.0mm
00:54 76.3 °F /  24.6 °C 69.8 °F /  21 °C 29.8in /  1010.0hPa NE 6.2mph /  10km/h 12mph /  19.3km/h 80.1% 0in /  0.0mm
00:59 76.3 °F /  24.6 °C 70 °F /  21.1 °C 29.8in /  1010.0hPa NE 6.1mph /  9.8km/h 12.7mph /  20.4km/h 81% 0in /  0.0mm
01:04 76.1 °F /  24.5 °C 69.8 °F /  21 °C 29.8in /  1010.1hPa NE 5.9mph /  9.5km/h 13mph /  20.9km/h 81% 0in /  0.0mm
01:09 75.9 °F /  24.4 °C 69.8 °F /  21 °C 29.8in /  1010.1hPa NE 5.7mph /  9.2km/h 9mph /  14.5km/h 81% 0in /  0.0mm
01:14 75.9 °F /  24.4 °C 69.6 °F /  20.9 °C 29.8in /  1010.1hPa NE 5.4mph /  8.7km/h 8.7mph /  14km/h 81% 0in /  0.0mm
01:19 75.9 °F /  24.4 °C 69.8 °F /  21 °C 29.8in /  1010.1hPa NE 5.4mph /  8.7km/h 9.2mph /  14.8km/h 81.4% 0in /  0.0mm
01:24 75.7 °F /  24.3 °C 70 °F /  21.1 °C 29.8in /  1010.1hPa NE 5.4mph /  8.7km/h 9.2mph /  14.8km/h 82% 0in /  0.0mm
01:29 75.7 °F /  24.3 °C 70 °F /  21.1 °C 29.8in /  1010.1hPa NE 5.4mph /  8.7km/h 9.2mph /  14.8km/h 82% 0in /  0.0mm
01:34 75.6 °F /  24.2 °C 69.8 °F /  21 °C 29.8in /  1010.1hPa NE 5.4mph /  8.7km/h 10.4mph /  16.7km/h 82% 0in /  0.0mm
01:39 75.6 °F /  24.2 °C 70 °F /  21.1 °C 29.8in /  1010.0hPa NNE 5.4mph /  8.7km/h 10mph /  16.1km/h 82.9% 0in /  0.0mm
01:44 75.6 °F /  24.2 °C 70 °F /  21.1 °C 29.8in /  1010.0hPa NE 5.4mph /  8.7km/h 9.2mph /  14.8km/h 83% 0in /  0.0mm
01:49 75.4 °F /  24.1 °C 70 °F /  21.1 °C 29.8in /  1010.1hPa NNE 5.2mph /  8.3km/h 9mph /  14.5km/h 83% 0in /  0.0mm
01:54 75.4 °F /  24.1 °C 69.8 °F /  21 °C 29.8in /  1010.1hPa NNE 4.7mph /  7.6km/h 7mph /  11.3km/h 83% 0in /  0.0mm
01:59 75.2 °F /  24 °C 69.6 °F /  20.9 °C 29.8in /  1010.1hPa NNE 4.3mph /  6.9km/h 6mph /  9.7km/h 83% 0in /  0.0mm
02:04 75.2 °F /  24 °C 69.6 °F /  20.9 °C 29.8in /  1010.2hPa NNE 3.6mph /  5.8km/h 6.2mph /  10km/h 83% 0in /  0.0mm
02:09 75.2 °F /  24 °C 69.6 °F /  20.9 °C 29.8in /  1010.2hPa NNE 3.4mph /  5.4km/h 6mph /  9.7km/h 83% 0in /  0.0mm
02:14 75 °F /  23.9 °C 69.4 °F /  20.8 °C 29.8in /  1010.2hPa NNE 2.9mph /  4.7km/h 5mph /  8km/h 83% 0in /  0.0mm
02:19 75 °F /  23.9 °C 69.4 °F /  20.8 °C 29.8in /  1010.2hPa NE 2.7mph /  4.4km/h 5mph /  8km/h 83% 0in /  0.0mm
02:24 75 °F /  23.9 °C 69.4 °F /  20.8 °C 29.8in /  1010.1hPa NNE 2.4mph /  3.9km/h 5mph /  8km/h 83% 0in /  0.0mm
02:29 75 °F /  23.9 °C 69.4 °F /  20.8 °C 29.8in /  1010.1hPa NNE 2.4mph /  3.9km/h 5mph /  8km/h 83% 0in /  0.0mm
02:34 75 °F /  23.9 °C 69.4 °F /  20.8 °C 29.8in /  1010.1hPa North 2.4mph /  3.9km/h 4mph /  6.4km/h 83% 0in /  0.0mm
02:39 75 °F /  23.9 °C 69.4 °F /  20.8 °C 29.8in /  1010.0hPa NNO 2.2mph /  3.5km/h 4mph /  6.4km/h 83% 0in /  0.0mm
02:44 75 °F /  23.9 °C 69.6 °F /  20.9 °C 29.8in /  1010.0hPa NO 1.8mph /  2.9km/h 4mph /  6.4km/h 83% 0in /  0.0mm
02:49 75 °F /  23.9 °C 69.4 °F /  20.8 °C 29.8in /  1010.0hPa NNO 1.2mph /  2km/h   83% 0in /  0.0mm
02:54 75 °F /  23.9 °C 69.6 °F /  20.9 °C 29.8in /  1009.9hPa Calm     83% 0in /  0.0mm
02:59 75.2 °F /  24 °C 69.6 °F /  20.9 °C 29.8in /  1009.9hPa Calm   4.6mph /  7.4km/h 83% 0in /  0.0mm
03:04 75.2 °F /  24 °C 69.6 °F /  20.9 °C 29.8in /  1009.9hPa Calm   5.2mph /  8.4km/h 83% 0in /  0.0mm
03:09 75.2 °F /  24 °C 69.8 °F /  21 °C 29.8in /  1009.9hPa NO 0.6mph /  0.9km/h 5mph /  8km/h 83% 0in /  0.0mm
03:14 75.4 °F /  24.1 °C 69.8 °F /  21 °C 29.8in /  1009.9hPa ONO 1.8mph /  2.9km/h 5mph /  8km/h 83% 0in /  0.0mm
03:19 75.4 °F /  24.1 °C 69.8 °F /  21 °C 29.8in /  1009.9hPa ONO 1.9mph /  3km/h 4.7mph /  7.6km/h 83% 0in /  0.0mm
03:24 75.2 °F /  24 °C 70 °F /  21.1 °C 29.8in /  1009.8hPa Oeste 2mph /  3.2km/h 5mph /  8km/h 83.7% 0in /  0.0mm
03:29 75.2 °F /  24 °C 70 °F /  21.1 °C 29.8in /  1009.8hPa OSO 1.9mph /  3.1km/h 5mph /  8km/h 84% 0in /  0.0mm
03:34 75.2 °F /  24 °C 69.6 °F /  20.9 °C 29.8in /  1009.8hPa NO 1.8mph /  2.9km/h 4mph /  6.4km/h 83.2% 0in /  0.0mm
03:39 75 °F /  23.9 °C 69.8 °F /  21 °C 29.8in /  1009.6hPa Oeste 1.9mph /  3km/h 4.6mph /  7.4km/h 83.8% 0in /  0.0mm
03:44 75 °F /  23.9 °C 70 °F /  21.1 °C 29.8in /  1009.6hPa ONO 2mph /  3.2km/h 5mph /  8km/h 84% 0in /  0.0mm
03:49 75.2 °F /  24 °C 69.6 °F /  20.9 °C 29.8in /  1009.7hPa Oeste 1.9mph /  3.1km/h 3.6mph /  5.8km/h 83.1% 0in /  0.0mm
03:54 75 °F /  23.9 °C 69.6 °F /  20.9 °C 29.8in /  1009.7hPa Oeste 1.8mph /  2.9km/h 4mph /  6.4km/h 83.2% 0in /  0.0mm
03:59 75.2 °F /  24 °C 70 °F /  21.1 °C 29.8in /  1009.7hPa Oeste 1.1mph /  1.8km/h   84% 0in /  0.0mm
04:04 75.2 °F /  24 °C 70 °F /  21.1 °C 29.8in /  1009.7hPa Calm     84% 0in /  0.0mm
04:09 75.2 °F /  24 °C 70 °F /  21.1 °C 29.8in /  1009.7hPa Calm   4.7mph /  7.6km/h 83.8% 0in /  0.0mm
04:14 75.2 °F /  24 °C 69.6 °F /  20.9 °C 29.8in /  1009.7hPa Calm   5mph /  8km/h 83% 0in /  0.0mm
04:19 75 °F /  23.9 °C 69.3 °F /  20.7 °C 29.8in /  1009.7hPa SE 0.9mph /  1.5km/h 5mph /  8km/h 82.2% 0in /  0.0mm
04:24 75.2 °F /  24 °C 69.3 °F /  20.7 °C 29.8in /  1009.7hPa SSE 2.9mph /  4.7km/h 5.8mph /  9.3km/h 81.9% 0in /  0.0mm
04:29 75 °F /  23.9 °C 68.9 °F /  20.5 °C 29.8in /  1009.7hPa SSE 3.1mph /  5km/h 6mph /  9.7km/h 81% 0in /  0.0mm
04:34 75 °F /  23.9 °C 68.9 °F /  20.5 °C 29.8in /  1009.8hPa Sur 3.6mph /  5.8km/h 7.4mph /  11.9km/h 81% 0in /  0.0mm
04:39 75.2 °F /  24 °C 69.1 °F /  20.6 °C 29.8in /  1009.8hPa Sur 3.7mph /  6km/h 7mph /  11.3km/h 81% 0in /  0.0mm
04:44 75.2 °F /  24 °C 69.1 °F /  20.6 °C 29.8in /  1009.8hPa Sur 4mph /  6.5km/h 7mph /  11.3km/h 81% 0in /  0.0mm
04:49 75.2 °F /  24 °C 68.9 °F /  20.5 °C 29.8in /  1009.8hPa Sur 4mph /  6.5km/h 5.9mph /  9.5km/h 80.6% 0in /  0.0mm
04:54 75.4 °F /  24.1 °C 68.7 °F /  20.4 °C 29.8in /  1009.8hPa SSO 4mph /  6.5km/h 6.9mph /  11.1km/h 80% 0in /  0.0mm
04:59 75.4 °F /  24.1 °C 68.7 °F /  20.4 °C 29.8in /  1009.8hPa SSO 3.9mph /  6.2km/h 7.6mph /  12.2km/h 79.8% 0in /  0.0mm
05:04 75.4 °F /  24.1 °C 68.4 °F /  20.2 °C 29.8in /  1009.9hPa SO 3.6mph /  5.8km/h 8.1mph /  13km/h 79% 0in /  0.0mm
05:09 75.6 °F /  24.2 °C 68.5 °F /  20.3 °C 29.8in /  1009.9hPa SSO 3.4mph /  5.5km/h 8mph /  12.9km/h 79% 0in /  0.0mm
05:14 75.6 °F /  24.2 °C 68.5 °F /  20.3 °C 29.8in /  1009.9hPa SO 3.1mph /  5km/h 5.2mph /  8.4km/h 78.8% 0in /  0.0mm
05:19 75.6 °F /  24.2 °C 68.2 °F /  20.1 °C 29.8in /  1009.9hPa OSO 2.9mph /  4.6km/h 6mph /  9.7km/h 78% 0in /  0.0mm
05:24 75.6 °F /  24.2 °C 68.4 °F /  20.2 °C 29.8in /  1009.8hPa SO 2.4mph /  3.9km/h 5mph /  8km/h 78% 0in /  0.0mm
05:29 75.7 °F /  24.3 °C 68.4 °F /  20.2 °C 29.8in /  1009.8hPa SO 2.2mph /  3.5km/h 5mph /  8km/h 78% 0in /  0.0mm
05:34 75.7 °F /  24.3 °C 68.4 °F /  20.2 °C 29.8in /  1009.8hPa SO 1.8mph /  2.9km/h 3.5mph /  5.6km/h 78% 0in /  0.0mm
05:39 75.6 °F /  24.2 °C 68 °F /  20 °C 29.8in /  1009.7hPa SO 1.2mph /  1.9km/h 3mph /  4.8km/h 77.4% 0in /  0.0mm
05:44 75.6 °F /  24.2 °C 68.2 °F /  20.1 °C 29.8in /  1009.7hPa Calm   3.6mph /  5.8km/h 78% 0in /  0.0mm
05:49 75.4 °F /  24.1 °C 68 °F /  20 °C 29.8in /  1009.8hPa Oeste 0.6mph /  1km/h 4mph /  6.4km/h 78% 0in /  0.0mm
05:54 75 °F /  23.9 °C 67.8 °F /  19.9 °C 29.8in /  1009.8hPa Oeste 1.8mph /  2.9km/h 3mph /  4.8km/h 78% 0in /  0.0mm
05:59 75 °F /  23.9 °C 67.6 °F /  19.8 °C 29.8in /  1009.8hPa Oeste 1.2mph /  1.9km/h 3mph /  4.8km/h 78% 0in /  0.0mm
06:04 74.8 °F /  23.8 °C 67.5 °F /  19.7 °C 29.8in /  1009.9hPa Calm   2mph /  3.2km/h 78% 0in /  0.0mm
06:09 74.8 °F /  23.8 °C 67.5 °F /  19.7 °C 29.8in /  1009.9hPa Calm   1.4mph /  2.3km/h 78% 0in /  0.0mm
06:14 74.8 °F /  23.8 °C 67.5 °F /  19.7 °C 29.8in /  1009.9hPa Calm   4.6mph /  7.4km/h 78% 0in /  0.0mm
06:19 74.8 °F /  23.8 °C 67.5 °F /  19.7 °C 29.8in /  1009.9hPa OSO 0.6mph /  0.9km/h 5mph /  8km/h 78% 0in /  0.0mm
06:24 74.8 °F /  23.8 °C 67.5 °F /  19.7 °C 29.8in /  1009.9hPa OSO 1.8mph /  2.9km/h 5mph /  8km/h 78% 0in /  0.0mm
06:29 74.8 °F /  23.8 °C 67.5 °F /  19.7 °C 29.8in /  1009.9hPa SO 2.2mph /  3.5km/h 6.9mph /  11.1km/h 78% 0in /  0.0mm
06:34 74.8 °F /  23.8 °C 67.3 °F /  19.6 °C 29.8in /  1009.9hPa SSO 2.9mph /  4.7km/h 7mph /  11.3km/h 77.5% 0in /  0.0mm
06:39 74.8 °F /  23.8 °C 67.3 °F /  19.6 °C 29.8in /  1009.9hPa SSO 3.3mph /  5.3km/h 6.2mph /  10km/h 77.6% 0in /  0.0mm
06:44 74.7 °F /  23.7 °C 66.9 °F /  19.4 °C 29.8in /  1009.9hPa SSO 4mph /  6.5km/h 6.9mph /  11.1km/h 77% 0in /  0.0mm
06:49 74.7 °F /  23.7 °C 66.9 °F /  19.4 °C 29.8in /  1010.0hPa SSO 4.2mph /  6.8km/h 7.4mph /  11.9km/h 77% 0in /  0.0mm
06:54 74.7 °F /  23.7 °C 67.1 °F /  19.5 °C 29.8in /  1010.0hPa Sur 4.7mph /  7.6km/h 7mph /  11.3km/h 77.6% 0in /  0.0mm
06:59 74.7 °F /  23.7 °C 66.9 °F /  19.4 °C 29.8in /  1010.0hPa SSO 4.5mph /  7.3km/h 8.1mph /  13km/h 77% 0in /  0.0mm
07:04 74.5 °F /  23.6 °C 66.7 °F /  19.3 °C 29.8in /  1010.2hPa SSO 4.3mph /  6.9km/h 8mph /  12.9km/h 77% 0in /  0.0mm
07:09 74.3 °F /  23.5 °C 66.6 °F /  19.2 °C 29.8in /  1010.2hPa OSO 4.2mph /  6.8km/h 6.9mph /  11.1km/h 77% 0in /  0.0mm
07:14 74.3 °F /  23.5 °C 66.6 °F /  19.2 °C 29.8in /  1010.2hPa OSO 4mph /  6.5km/h 7mph /  11.3km/h 77% 0in /  0.0mm
07:19 74.3 °F /  23.5 °C 66.6 °F /  19.2 °C 29.8in /  1010.2hPa SO 3.7mph /  6km/h 6mph /  9.7km/h 77% 0in /  0.0mm
07:24 74.3 °F /  23.5 °C 66.6 °F /  19.2 °C 29.8in /  1010.1hPa Oeste 3.1mph /  5km/h 5mph /  8km/h 77% 0in /  0.0mm
07:29 74.5 °F /  23.6 °C 66.7 °F /  19.3 °C 29.8in /  1010.1hPa Oeste 2.9mph /  4.6km/h 4.6mph /  7.4km/h 77% 0in /  0.0mm
07:34 74.5 °F /  23.6 °C 66.7 °F /  19.3 °C 29.8in /  1010.3hPa Oeste 2.4mph /  3.9km/h 5mph /  8km/h 77% 0in /  0.0mm
07:39 74.5 °F /  23.6 °C 66.7 °F /  19.3 °C 29.8in /  1010.3hPa Oeste 2.2mph /  3.5km/h 4mph /  6.4km/h 77% 0in /  0.0mm
07:44 74.5 °F /  23.6 °C 66.7 °F /  19.3 °C 29.8in /  1010.3hPa Oeste 1.8mph /  2.9km/h 3mph /  4.8km/h 77% 0in /  0.0mm
07:49 74.7 °F /  23.7 °C 66.9 °F /  19.4 °C 29.8in /  1010.4hPa Oeste 1.2mph /  2km/h   77% 0in /  0.0mm
07:54 74.7 °F /  23.7 °C 66.9 °F /  19.4 °C 29.8in /  1010.4hPa Calm     77% 0in /  0.0mm
07:59 74.7 °F /  23.7 °C 67.1 °F /  19.5 °C 29.8in /  1010.4hPa Calm     77% 0in /  0.0mm
08:04 74.8 °F /  23.8 °C 66.9 °F /  19.4 °C 29.8in /  1010.5hPa Calm     76.4% 0in /  0.0mm
08:09 75.2 °F /  24 °C 67.1 °F /  19.5 °C 29.8in /  1010.5hPa Calm     76.1% 0in /  0.0mm
08:14 75.6 °F /  24.2 °C 67.1 °F /  19.5 °C 29.8in /  1010.5hPa Calm   4.7mph /  7.6km/h 75.2% 0in /  0.0mm
08:19 75.7 °F /  24.3 °C 67.1 °F /  19.5 °C 29.8in /  1010.6hPa SSO 0.6mph /  1km/h 5mph /  8km/h 74.4% 0in /  0.0mm
08:24 75.9 °F /  24.4 °C 66.9 °F /  19.4 °C 29.8in /  1010.6hPa SSO 2mph /  3.2km/h 7.4mph /  11.9km/h 74% 0in /  0.0mm
08:29 75.9 °F /  24.4 °C 67.3 °F /  19.6 °C 29.8in /  1010.6hPa SSO 2.7mph /  4.3km/h 7mph /  11.3km/h 75% 0in /  0.0mm
08:34 75.7 °F /  24.3 °C 67.3 °F /  19.6 °C 29.8in /  1010.7hPa SSO 4mph /  6.5km/h 8.1mph /  13km/h 75% 0in /  0.0mm
08:39 75.7 °F /  24.3 °C 67.1 °F /  19.5 °C 29.8in /  1010.7hPa SSO 4.4mph /  7.1km/h 8.1mph /  13km/h 75% 0in /  0.0mm
08:44 75.7 °F /  24.3 °C 67.3 °F /  19.6 °C 29.8in /  1010.7hPa SSO 5.2mph /  8.4km/h 8mph /  12.9km/h 75% 0in /  0.0mm
08:49 75.9 °F /  24.4 °C 67.3 °F /  19.6 °C 29.9in /  1010.8hPa SSO 4.8mph /  7.8km/h 7mph /  11.3km/h 74.7% 0in /  0.0mm
08:54 76.3 °F /  24.6 °C 67.5 °F /  19.7 °C 29.9in /  1010.8hPa Sur 4mph /  6.5km/h 6.2mph /  10km/h 74% 0in /  0.0mm
08:59 76.6 °F /  24.8 °C 67.3 °F /  19.6 °C 29.9in /  1010.8hPa Sur 4mph /  6.5km/h 6.9mph /  11.1km/h 73.1% 0in /  0.0mm
09:04 76.8 °F /  24.9 °C 67.3 °F /  19.6 °C 29.9in /  1010.9hPa SSO 4mph /  6.5km/h 7mph /  11.3km/h 72.4% 0in /  0.0mm
09:09 77.2 °F /  25.1 °C 67.3 °F /  19.6 °C 29.9in /  1010.9hPa SSO 3.9mph /  6.2km/h 7.4mph /  11.9km/h 71.7% 0in /  0.0mm
09:14 77.4 °F /  25.2 °C 67.1 °F /  19.5 °C 29.9in /  1010.9hPa OSO 3.6mph /  5.8km/h 7mph /  11.3km/h 71% 0in /  0.0mm
09:19 77.5 °F /  25.3 °C 67.3 °F /  19.6 °C 29.9in /  1011.0hPa SO 3.4mph /  5.4km/h 5.2mph /  8.4km/h 70.8% 0in /  0.0mm
09:24 77.9 °F /  25.5 °C 67.1 °F /  19.5 °C 29.9in /  1011.0hPa SSO 2.9mph /  4.7km/h 5mph /  8km/h 69.6% 0in /  0.0mm
09:29 78.3 °F /  25.7 °C 67.1 °F /  19.5 °C 29.9in /  1011.0hPa Oeste 2.6mph /  4.2km/h 5mph /  8km/h 68.4% 0in /  0.0mm
09:34 78.6 °F /  25.9 °C 66.7 °F /  19.3 °C 29.9in /  1011.2hPa SO 2mph /  3.2km/h 5.2mph /  8.4km/h 67% 0in /  0.0mm
09:39 79 °F /  26.1 °C 66.6 °F /  19.2 °C 29.9in /  1011.2hPa SO 2.3mph /  3.7km/h 5.9mph /  9.5km/h 66% 0in /  0.0mm
09:44 79.2 °F /  26.2 °C 66.6 °F /  19.2 °C 29.9in /  1011.2hPa OSO 2.9mph /  4.7km/h 6mph /  9.7km/h 65.4% 0in /  0.0mm
09:49 79.5 °F /  26.4 °C 66.4 °F /  19.1 °C 29.9in /  1011.2hPa Sur 2.7mph /  4.4km/h 5mph /  8km/h 64.4% 0in /  0.0mm
09:54 79.9 °F /  26.6 °C 66.2 °F /  19 °C 29.9in /  1011.2hPa Sur 2.4mph /  3.9km/h 5mph /  8km/h 63% 0in /  0.0mm
09:59 80.2 °F /  26.8 °C 66.2 °F /  19 °C 29.9in /  1011.2hPa SSO 2.5mph /  4.1km/h 5.2mph /  8.4km/h 62.3% 0in /  0.0mm
10:04 80.8 °F /  27.1 °C 65.8 °F /  18.8 °C 29.9in /  1011.2hPa SSO 2.9mph /  4.6km/h 5.9mph /  9.5km/h 60.4% 0in /  0.0mm
10:09 81.1 °F /  27.3 °C 65.1 °F /  18.4 °C 29.9in /  1011.2hPa SSO 3mph /  4.8km/h 6mph /  9.7km/h 58.4% 0in /  0.0mm
10:14 81.3 °F /  27.4 °C 64 °F /  17.8 °C 29.9in /  1011.2hPa SO 3.1mph /  5km/h 6.2mph /  10km/h 55.9% 0in /  0.0mm
10:19 81.7 °F /  27.6 °C 63.3 °F /  17.4 °C 29.9in /  1011.2hPa OSO 3.1mph /  5km/h 6mph /  9.7km/h 53.6% 0in /  0.0mm
10:24 82.2 °F /  27.9 °C 63.1 °F /  17.3 °C 29.9in /  1011.1hPa ONO 3.1mph /  5km/h 5mph /  8km/h 52.5% 0in /  0.0mm
10:29 82.9 °F /  28.3 °C 63.3 °F /  17.4 °C 29.9in /  1011.1hPa SSO 2.7mph /  4.3km/h 5.2mph /  8.4km/h 51.7% 0in /  0.0mm
10:34 83.5 °F /  28.6 °C 62.6 °F /  17 °C 29.9in /  1011.1hPa SSO 1.8mph /  2.9km/h 6.4mph /  10.3km/h 49.5% 0in /  0.0mm
10:39 84 °F /  28.9 °C 62.1 °F /  16.7 °C 29.9in /  1011.1hPa SSO 2mph /  3.2km/h 7mph /  11.3km/h 47.8% 0in /  0.0mm
10:44 84.2 °F /  29 °C 61.7 °F /  16.5 °C 29.9in /  1011.1hPa SSO 2.4mph /  3.9km/h 7mph /  11.3km/h 46.7% 0in /  0.0mm
10:49 84.6 °F /  29.2 °C 61.2 °F /  16.2 °C 29.9in /  1011.1hPa Sur 2.6mph /  4.2km/h 6.2mph /  10km/h 45.7% 0in /  0.0mm
10:54 84.7 °F /  29.3 °C 61.5 °F /  16.4 °C 29.9in /  1011.1hPa SSO 3.1mph /  5km/h 6mph /  9.7km/h 45.8% 0in /  0.0mm
10:59 85.5 °F /  29.7 °C 61.3 °F /  16.3 °C 29.9in /  1011.1hPa North 2.5mph /  4km/h 3mph /  4.8km/h 44.6% 0in /  0.0mm
11:04 86.5 °F /  30.3 °C 61 °F /  16.1 °C 29.9in /  1011.1hPa ENE 1.4mph /  2.2km/h 4.6mph /  7.4km/h 42.4% 0in /  0.0mm
11:09 87.3 °F /  30.7 °C 60.6 °F /  15.9 °C 29.9in /  1011.1hPa Este 1.6mph /  2.6km/h 5mph /  8km/h 41% 0in /  0.0mm
11:14 87.8 °F /  31 °C 60.6 °F /  15.9 °C 29.9in /  1011.1hPa NE 2mph /  3.2km/h 5mph /  8km/h 40.2% 0in /  0.0mm
11:19 88.3 °F /  31.3 °C 60.1 °F /  15.6 °C 29.9in /  1011.1hPa North 2mph /  3.2km/h 5mph /  8km/h 38.7% 0in /  0.0mm
11:24 88.5 °F /  31.4 °C 59.5 °F /  15.3 °C 29.9in /  1011.1hPa Este 2mph /  3.2km/h 6.9mph /  11.1km/h 37.8% 0in /  0.0mm
11:29 88.5 °F /  31.4 °C 58.5 °F /  14.7 °C 29.9in /  1011.1hPa ENE 2.4mph /  3.8km/h 7mph /  11.3km/h 36.4% 0in /  0.0mm
11:34 88.3 °F /  31.3 °C 58.1 °F /  14.5 °C 29.9in /  1011.1hPa Este 3.1mph /  5km/h 6mph /  9.7km/h 36.1% 0in /  0.0mm
11:39 88.3 °F /  31.3 °C 58.3 °F /  14.6 °C 29.9in /  1011.1hPa ENE 3.2mph /  5.2km/h 6.9mph /  11.1km/h 36.2% 0in /  0.0mm
11:44 88.7 °F /  31.5 °C 58.8 °F /  14.9 °C 29.9in /  1011.1hPa NE 3.6mph /  5.8km/h 7mph /  11.3km/h 36.7% 0in /  0.0mm
11:49 89.1 °F /  31.7 °C 58.8 °F /  14.9 °C 29.9in /  1011.1hPa NE 3.6mph /  5.8km/h 11.5mph /  18.5km/h 36.1% 0in /  0.0mm
11:54 89.1 °F /  31.7 °C 58.1 °F /  14.5 °C 29.9in /  1011.1hPa ENE 3.6mph /  5.8km/h 12mph /  19.3km/h 35.4% 0in /  0.0mm
11:59 88.9 °F /  31.6 °C 59.5 °F /  15.3 °C 29.9in /  1011.1hPa NE 4.4mph /  7.1km/h 11.8mph /  19km/h 37.5% 0in /  0.0mm
12:04 88.5 °F /  31.4 °C 59.7 °F /  15.4 °C 29.9in /  1011.1hPa ENE 5.9mph /  9.5km/h 12mph /  19.3km/h 38% 0in /  0.0mm
12:09 88.7 °F /  31.5 °C 59.9 °F /  15.5 °C 29.9in /  1011.1hPa NE 5.9mph /  9.5km/h 13.8mph /  22.2km/h 38.1% 0in /  0.0mm
12:14 88.3 °F /  31.3 °C 60.3 °F /  15.7 °C 29.9in /  1011.1hPa NE 5.9mph /  9.5km/h 14mph /  22.5km/h 39.1% 0in /  0.0mm
12:19 88.5 °F /  31.4 °C 61.2 °F /  16.2 °C 29.9in /  1011.1hPa NE 6.1mph /  9.8km/h 14mph /  22.5km/h 40.1% 0in /  0.0mm
12:24 88.7 °F /  31.5 °C 60.8 °F /  16 °C 29.9in /  1011.1hPa NE 6.4mph /  10.3km/h 12mph /  19.3km/h 39.3% 0in /  0.0mm
12:29 89.1 °F /  31.7 °C 60.8 °F /  16 °C 29.9in /  1011.1hPa NE 6.2mph /  10km/h 12mph /  19.3km/h 38.9% 0in /  0.0mm
12:34 89.1 °F /  31.7 °C 61.3 °F /  16.3 °C 29.9in /  1011.1hPa NE 5.9mph /  9.5km/h 10.4mph /  16.7km/h 39.6% 0in /  0.0mm
12:39 89.1 °F /  31.7 °C 61.7 °F /  16.5 °C 29.9in /  1011.0hPa NNE 6mph /  9.6km/h 12.7mph /  20.4km/h 40% 0in /  0.0mm
12:44 89.2 °F /  31.8 °C 61 °F /  16.1 °C 29.9in /  1011.0hPa NE 6.2mph /  10km/h 14.5mph /  23.3km/h 39% 0in /  0.0mm
12:49 89.1 °F /  31.7 °C 61.2 °F /  16.2 °C 29.9in /  1011.1hPa NE 6.6mph /  10.7km/h 15mph /  24.1km/h 39.4% 0in /  0.0mm
12:54 89.4 °F /  31.9 °C 62.6 °F /  17 °C 29.9in /  1011.1hPa NE 7.6mph /  12.2km/h 15mph /  24.1km/h 40.9% 0in /  0.0mm
12:59 89.8 °F /  32.1 °C 62.8 °F /  17.1 °C 29.9in /  1011.1hPa NE 7.8mph /  12.5km/h 15mph /  24.1km/h 41% 0in /  0.0mm
13:04 90 °F /  32.2 °C 64 °F /  17.8 °C 29.9in /  1011.1hPa NE 8.1mph /  13km/h 14mph /  22.5km/h 42.5% 0in /  0.0mm
13:09 90.1 °F /  32.3 °C 66.6 °F /  19.2 °C 29.9in /  1011.0hPa ENE 8.1mph /  13km/h 19mph /  30.6km/h 45.9% 0in /  0.0mm
13:14 89.6 °F /  32 °C 68 °F /  20 °C 29.9in /  1011.0hPa ENE 8.1mph /  13km/h 21.9mph /  35.2km/h 49.2% 0in /  0.0mm
13:19 89.1 °F /  31.7 °C 68.2 °F /  20.1 °C 29.9in /  1011.1hPa NE 8.9mph /  14.4km/h 22mph /  35.4km/h 50.2% 0in /  0.0mm
13:24 88.5 °F /  31.4 °C 68 °F /  20 °C 29.9in /  1011.1hPa ENE 10.7mph /  17.2km/h 17mph /  27.4km/h 50.7% 0in /  0.0mm
13:29 88.2 °F /  31.2 °C 67.6 °F /  19.8 °C 29.9in /  1011.1hPa ENE 10.7mph /  17.2km/h 19.6mph /  31.5km/h 51% 0in /  0.0mm
13:34 88 °F /  31.1 °C 68 °F /  20 °C 29.9in /  1011.2hPa ENE 10.7mph /  17.2km/h 20mph /  32.2km/h 52% 0in /  0.0mm
13:39 87.8 °F /  31 °C 68.7 °F /  20.4 °C 29.9in /  1011.2hPa NE 10.4mph /  16.8km/h 18.5mph /  29.8km/h 53.3% 0in /  0.0mm
13:44 87.4 °F /  30.8 °C 68.9 °F /  20.5 °C 29.9in /  1011.2hPa NE 10mph /  16.1km/h 19.7mph /  31.7km/h 54.4% 0in /  0.0mm
13:49 87.3 °F /  30.7 °C 69.1 °F /  20.6 °C 29.9in /  1011.2hPa ENE 10mph /  16.1km/h 20mph /  32.2km/h 55% 0in /  0.0mm
13:54 87.4 °F /  30.8 °C 69.3 °F /  20.7 °C 29.9in /  1011.2hPa ENE 10mph /  16.1km/h 17mph /  27.4km/h 54.9% 0in /  0.0mm
13:59 87.4 °F /  30.8 °C 68.7 °F /  20.4 °C 29.9in /  1011.2hPa ENE 9.9mph /  15.9km/h 20.7mph /  33.3km/h 54.1% 0in /  0.0mm
14:04 87.1 °F /  30.6 °C 68.4 °F /  20.2 °C 29.9in /  1011.2hPa NE 9.7mph /  15.6km/h 21mph /  33.8km/h 53.7% 0in /  0.0mm
14:09 87.3 °F /  30.7 °C 68.2 °F /  20.1 °C 29.9in /  1011.1hPa NE 9.9mph /  15.9km/h 21mph /  33.8km/h 53.3% 0in /  0.0mm
14:14 87.1 °F /  30.6 °C 68.2 °F /  20.1 °C 29.9in /  1011.1hPa NE 10.2mph /  16.4km/h 19.2mph /  30.9km/h 53.6% 0in /  0.0mm
14:19 86.9 °F /  30.5 °C 68.5 °F /  20.3 °C 29.9in /  1011.2hPa NE 10.6mph /  17km/h 23mph /  37km/h 54.6% 0in /  0.0mm
14:24 86.4 °F /  30.2 °C 68.7 °F /  20.4 °C 29.9in /  1011.2hPa NE 11.4mph /  18.4km/h 23mph /  37km/h 55.7% 0in /  0.0mm
14:29 87.1 °F /  30.6 °C 68.4 °F /  20.2 °C 29.9in /  1011.2hPa NE 11.4mph /  18.4km/h 21mph /  33.8km/h 53.9% 0in /  0.0mm
14:34 87.1 °F /  30.6 °C 68 °F /  20 °C 29.9in /  1011.2hPa NE 11.4mph /  18.4km/h 20mph /  32.2km/h 53.3% 0in /  0.0mm
14:39 87.1 °F /  30.6 °C 67.3 °F /  19.6 °C 29.9in /  1011.0hPa NE 11.9mph /  19.1km/h 19mph /  30.6km/h 52.1% 0in /  0.0mm
14:44 87.1 °F /  30.6 °C 66.4 °F /  19.1 °C 29.9in /  1011.0hPa NE 13mph /  20.9km/h 19.2mph /  30.9km/h 50.3% 0in /  0.0mm
14:49 87.1 °F /  30.6 °C 65.1 °F /  18.4 °C 29.9in /  1011.1hPa NE 12.6mph /  20.3km/h 20mph /  32.2km/h 48.2% 0in /  0.0mm
14:54 87.3 °F /  30.7 °C 64.9 °F /  18.3 °C 29.9in /  1011.1hPa NE 11.8mph /  19km/h 20mph /  32.2km/h 47.7% 0in /  0.0mm
14:59 87.4 °F /  30.8 °C 64.9 °F /  18.3 °C 29.9in /  1011.1hPa NE 11.2mph /  18km/h 22.3mph /  35.9km/h 47.3% 0in /  0.0mm
15:04 87.4 °F /  30.8 °C 65.3 °F /  18.5 °C 29.9in /  1011.1hPa ENE 10mph /  16.1km/h 22mph /  35.4km/h 47.9% 0in /  0.0mm
15:09 87.4 °F /  30.8 °C 65.1 °F /  18.4 °C 29.9in /  1011.1hPa ENE 10.2mph /  16.4km/h 22mph /  35.4km/h 47.8% 0in /  0.0mm
15:14 87.4 °F /  30.8 °C 65.1 °F /  18.4 °C 29.9in /  1011.1hPa NE 10.7mph /  17.2km/h 22mph /  35.4km/h 47.7% 0in /  0.0mm
15:19 87.4 °F /  30.8 °C 64.9 °F /  18.3 °C 29.9in /  1011.1hPa NE 10.9mph /  17.5km/h 22mph /  35.4km/h 47.4% 0in /  0.0mm
15:24 87.6 °F /  30.9 °C 64.9 °F /  18.3 °C 29.9in /  1011.0hPa NE 11.2mph /  18km/h 21mph /  33.8km/h 47% 0in /  0.0mm
15:29 87.6 °F /  30.9 °C 65.1 °F /  18.4 °C 29.9in /  1011.0hPa NE 11.2mph /  18km/h 21.3mph /  34.3km/h 47.3% 0in /  0.0mm
15:34 87.4 °F /  30.8 °C 65.3 °F /  18.5 °C 29.9in /  1011.0hPa NE 11.2mph /  18km/h 22.3mph /  35.9km/h 47.9% 0in /  0.0mm
15:39 87.4 °F /  30.8 °C 65.3 °F /  18.5 °C 29.9in /  1011.0hPa NE 11.8mph /  19km/h 22mph /  35.4km/h 48% 0in /  0.0mm
15:44 87.3 °F /  30.7 °C 65.3 °F /  18.5 °C 29.9in /  1011.0hPa NE 13mph /  20.9km/h 22.3mph /  35.9km/h 48.1% 0in /  0.0mm
15:49 87.1 °F /  30.6 °C 65.3 °F /  18.5 °C 29.9in /  1011.0hPa NE 13mph /  20.9km/h 22mph /  35.4km/h 48.8% 0in /  0.0mm
15:54 87.3 °F /  30.7 °C 65.8 °F /  18.8 °C 29.9in /  1011.0hPa NE 13mph /  20.9km/h 22.5mph /  36.2km/h 49.2% 0in /  0.0mm
15:59 87.1 °F /  30.6 °C 65.8 °F /  18.8 °C 29.9in /  1011.0hPa ENE 12.8mph /  20.6km/h 23mph /  37km/h 49.4% 0in /  0.0mm
16:04 87.6 °F /  30.9 °C 65.5 °F /  18.6 °C 29.9in /  1011.0hPa ENE 12.5mph /  20.1km/h 21mph /  33.8km/h 48% 0in /  0.0mm
16:09 87.6 °F /  30.9 °C 64.9 °F /  18.3 °C 29.9in /  1011.0hPa NE 11.9mph /  19.1km/h 21.5mph /  34.6km/h 47.2% 0in /  0.0mm
16:14 87.4 °F /  30.8 °C 65.5 °F /  18.6 °C 29.9in /  1011.0hPa ENE 10.7mph /  17.2km/h 22mph /  35.4km/h 48.2% 0in /  0.0mm
16:19 87.6 °F /  30.9 °C 65.8 °F /  18.8 °C 29.9in /  1011.0hPa NE 10.1mph /  16.2km/h 20.1mph /  32.3km/h 48.5% 0in /  0.0mm
16:24 87.4 °F /  30.8 °C 64.4 °F /  18 °C 29.9in /  1010.8hPa ENE 8.7mph /  14km/h 21mph /  33.8km/h 46.4% 0in /  0.0mm
16:29 87.4 °F /  30.8 °C 64.8 °F /  18.2 °C 29.9in /  1010.8hPa NE 9.3mph /  15km/h 17.3mph /  27.8km/h 46.8% 0in /  0.0mm
16:34 87.6 °F /  30.9 °C 64.8 °F /  18.2 °C 29.9in /  1010.8hPa ENE 10.7mph /  17.2km/h 17.3mph /  27.8km/h 46.6% 0in /  0.0mm
16:39 87.4 °F /  30.8 °C 65.3 °F /  18.5 °C 29.9in /  1010.8hPa NE 10.6mph /  17km/h 19mph /  30.6km/h 47.8% 0in /  0.0mm
16:44 87.4 °F /  30.8 °C 64.9 °F /  18.3 °C 29.9in /  1010.8hPa ENE 10.2mph /  16.4km/h 19.2mph /  30.9km/h 47.3% 0in /  0.0mm
16:49 87.6 °F /  30.9 °C 65.3 °F /  18.5 °C 29.9in /  1010.8hPa NE 10.2mph /  16.4km/h 20mph /  32.2km/h 47.6% 0in /  0.0mm
16:54 87.4 °F /  30.8 °C 64.4 °F /  18 °C 29.9in /  1010.8hPa NE 10.2mph /  16.4km/h 20.8mph /  33.5km/h 46.6% 0in /  0.0mm
16:59 86.9 °F /  30.5 °C 64.8 °F /  18.2 °C 29.9in /  1010.8hPa NE 10.6mph /  17.1km/h 21mph /  33.8km/h 47.9% 0in /  0.0mm
17:04 87.4 °F /  30.8 °C 64.9 °F /  18.3 °C 29.9in /  1010.8hPa ENE 11.4mph /  18.4km/h 19.7mph /  31.7km/h 47.3% 0in /  0.0mm
17:09 87.3 °F /  30.7 °C 65.1 °F /  18.4 °C 29.8in /  1010.7hPa NE 11.6mph /  18.6km/h 20.8mph /  33.5km/h 47.9% 0in /  0.0mm
17:14 87.3 °F /  30.7 °C 65.3 °F /  18.5 °C 29.8in /  1010.7hPa NE 11.8mph /  19km/h 21mph /  33.8km/h 48.4% 0in /  0.0mm
17:19 87.1 °F /  30.6 °C 65.3 °F /  18.5 °C 29.8in /  1010.7hPa NE 11.4mph /  18.4km/h 23.5mph /  37.8km/h 48.5% 0in /  0.0mm
17:24 86.7 °F /  30.4 °C 65.1 °F /  18.4 °C 29.8in /  1010.7hPa NE 10.7mph /  17.2km/h 23mph /  37km/h 48.8% 0in /  0.0mm
17:29 86.9 °F /  30.5 °C 65.3 °F /  18.5 °C 29.8in /  1010.7hPa ENE 11.2mph /  18.1km/h 21.9mph /  35.2km/h 49% 0in /  0.0mm
17:34 86.9 °F /  30.5 °C 65.5 °F /  18.6 °C 29.9in /  1010.8hPa ENE 12.3mph /  19.8km/h 22mph /  35.4km/h 49% 0in /  0.0mm
17:39 86.9 °F /  30.5 °C 65.3 °F /  18.5 °C 29.9in /  1010.8hPa ENE 11.6mph /  18.7km/h 18.4mph /  29.6km/h 49% 0in /  0.0mm
17:44 86.9 °F /  30.5 °C 65.5 °F /  18.6 °C 29.9in /  1010.8hPa NE 10.2mph /  16.4km/h 20.7mph /  33.3km/h 49.2% 0in /  0.0mm
17:49 86.5 °F /  30.3 °C 65.7 °F /  18.7 °C 29.9in /  1010.8hPa ENE 10.2mph /  16.4km/h 21mph /  33.8km/h 50% 0in /  0.0mm
17:54 86.4 °F /  30.2 °C 65.7 °F /  18.7 °C 29.9in /  1010.8hPa NE 10.2mph /  16.4km/h 19mph /  30.6km/h 50.2% 0in /  0.0mm
17:59 86.4 °F /  30.2 °C 66 °F /  18.9 °C 29.9in /  1010.8hPa ENE 10.8mph /  17.4km/h 20.8mph /  33.5km/h 51% 0in /  0.0mm
18:04 86.4 °F /  30.2 °C 66 °F /  18.9 °C 29.9in /  1010.8hPa ENE 11.8mph /  19km/h 21.5mph /  34.6km/h 51% 0in /  0.0mm
18:09 86.4 °F /  30.2 °C 66.4 °F /  19.1 °C 29.8in /  1010.7hPa NE 10.7mph /  17.3km/h 22mph /  35.4km/h 51.6% 0in /  0.0mm
18:14 85.8 °F /  29.9 °C 66.4 °F /  19.1 °C 29.8in /  1010.7hPa ENE 8.5mph /  13.7km/h 21mph /  33.8km/h 52.2% 0in /  0.0mm
18:19 85.8 °F /  29.9 °C 66.2 °F /  19 °C 29.8in /  1010.7hPa ENE 8.7mph /  14km/h 16.8mph /  27km/h 52.2% 0in /  0.0mm
18:24 85.8 °F /  29.9 °C 65.8 °F /  18.8 °C 29.8in /  1010.6hPa NE 9.2mph /  14.8km/h 17.3mph /  27.8km/h 51.2% 0in /  0.0mm
18:29 86 °F /  30 °C 65.8 °F /  18.8 °C 29.8in /  1010.6hPa ENE 9.2mph /  14.8km/h 18.5mph /  29.8km/h 51.3% 0in /  0.0mm
18:34 85.6 °F /  29.8 °C 65.8 °F /  18.8 °C 29.8in /  1010.7hPa ENE 9.2mph /  14.8km/h 19mph /  30.6km/h 51.8% 0in /  0.0mm
18:39 85.5 °F /  29.7 °C 65.8 °F /  18.8 °C 29.8in /  1010.7hPa ENE 9.7mph /  15.6km/h 20.7mph /  33.3km/h 52% 0in /  0.0mm
18:44 85.5 °F /  29.7 °C 65.5 °F /  18.6 °C 29.8in /  1010.7hPa NE 10.7mph /  17.2km/h 21mph /  33.8km/h 51.4% 0in /  0.0mm
18:49 85.5 °F /  29.7 °C 65.7 °F /  18.7 °C 29.8in /  1010.7hPa NE 9.8mph /  15.8km/h 20mph /  32.2km/h 51.5% 0in /  0.0mm
18:54 85.6 °F /  29.8 °C 65.5 °F /  18.6 °C 29.8in /  1010.7hPa ENE 8.1mph /  13km/h 18.5mph /  29.8km/h 51.2% 0in /  0.0mm
18:59 85.5 °F /  29.7 °C 65.8 °F /  18.8 °C 29.8in /  1010.7hPa NE 8.1mph /  13km/h 19mph /  30.6km/h 52% 0in /  0.0mm
19:04 84.9 °F /  29.4 °C 64.9 °F /  18.3 °C 29.8in /  1010.7hPa NE 8.1mph /  13km/h 18.4mph /  29.6km/h 51.3% 0in /  0.0mm
19:09 84.7 °F /  29.3 °C 65.1 °F /  18.4 °C 29.8in /  1010.7hPa ENE 8.9mph /  14.4km/h 18.4mph /  29.6km/h 52% 0in /  0.0mm
19:14 84.9 °F /  29.4 °C 64.9 °F /  18.3 °C 29.8in /  1010.7hPa NE 10.7mph /  17.2km/h 18.5mph /  29.8km/h 51.4% 0in /  0.0mm
19:19 84.9 °F /  29.4 °C 65.3 °F /  18.5 °C 29.8in /  1010.7hPa ENE 10.2mph /  16.4km/h 19mph /  30.6km/h 51.9% 0in /  0.0mm
19:24 84.7 °F /  29.3 °C 65.1 °F /  18.4 °C 29.8in /  1010.7hPa NE 9.2mph /  14.8km/h 17.5mph /  28.2km/h 51.7% 0in /  0.0mm
19:29 84.6 °F /  29.2 °C 64.9 °F /  18.3 °C 29.8in /  1010.7hPa ENE 9.4mph /  15.2km/h 17.5mph /  28.2km/h 52% 0in /  0.0mm
19:34 84.4 °F /  29.1 °C 65.1 °F /  18.4 °C 29.9in /  1010.8hPa ENE 10mph /  16.1km/h 19.7mph /  31.7km/h 52.7% 0in /  0.0mm
19:39 84 °F /  28.9 °C 65.8 °F /  18.8 °C 29.9in /  1010.8hPa NE 9.5mph /  15.3km/h 20mph /  32.2km/h 54.6% 0in /  0.0mm
19:44 83.8 °F /  28.8 °C 66.2 °F /  19 °C 29.9in /  1010.8hPa ENE 8.5mph /  13.7km/h 18.4mph /  29.6km/h 55.7% 0in /  0.0mm
19:49 83.7 °F /  28.7 °C 67.1 °F /  19.5 °C 29.9in /  1010.8hPa ENE 8.4mph /  13.5km/h 18mph /  29km/h 57.8% 0in /  0.0mm
19:54 83.5 °F /  28.6 °C 67.8 °F /  19.9 °C 29.9in /  1010.8hPa NE 8.1mph /  13km/h 16.3mph /  26.2km/h 59.7% 0in /  0.0mm
19:59 82.9 °F /  28.3 °C 67.6 °F /  19.8 °C 29.9in /  1010.8hPa NE 8.8mph /  14.1km/h 20.7mph /  33.3km/h 60% 0in /  0.0mm
20:04 82.6 °F /  28.1 °C 67.5 °F /  19.7 °C 29.9in /  1011.0hPa NE 10mph /  16.1km/h 21mph /  33.8km/h 60.4% 0in /  0.0mm
20:09 82.6 °F /  28.1 °C 67.3 °F /  19.6 °C 29.9in /  1011.0hPa NE 9.8mph /  15.7km/h 16mph /  25.7km/h 60.1% 0in /  0.0mm
20:14 82.6 °F /  28.1 °C 67.8 °F /  19.9 °C 29.9in /  1011.0hPa NE 9.2mph /  14.8km/h 14mph /  22.5km/h 61% 0in /  0.0mm
20:19 82.4 °F /  28 °C 67.5 °F /  19.7 °C 29.9in /  1011.2hPa NE 8.7mph /  14km/h 17.3mph /  27.8km/h 60.7% 0in /  0.0mm
20:24 82 °F /  27.8 °C 66.7 °F /  19.3 °C 29.9in /  1011.2hPa NE 7.6mph /  12.2km/h 17.8mph /  28.6km/h 60% 0in /  0.0mm
20:29 81.9 °F /  27.7 °C 66.7 °F /  19.3 °C 29.9in /  1011.2hPa NE 8.4mph /  13.5km/h 18.4mph /  29.6km/h 60.2% 0in /  0.0mm
20:34 81.7 °F /  27.6 °C 67.1 °F /  19.5 °C 29.9in /  1011.3hPa NE 10mph /  16.1km/h 17.3mph /  27.8km/h 61.4% 0in /  0.0mm
20:39 81.5 °F /  27.5 °C 67.6 °F /  19.8 °C 29.9in /  1011.3hPa NE 9.9mph /  15.9km/h 17.3mph /  27.8km/h 62.6% 0in /  0.0mm
20:44 81.3 °F /  27.4 °C 68 °F /  20 °C 29.9in /  1011.3hPa NE 9.7mph /  15.6km/h 17mph /  27.4km/h 64.1% 0in /  0.0mm
20:49 81.1 °F /  27.3 °C 68.5 °F /  20.3 °C 29.9in /  1011.3hPa NE 9.7mph /  15.6km/h 17.3mph /  27.8km/h 65.7% 0in /  0.0mm
20:54 81 °F /  27.2 °C 68.9 °F /  20.5 °C 29.9in /  1011.3hPa ENE 9.7mph /  15.6km/h 17.3mph /  27.8km/h 66.8% 0in /  0.0mm
20:59 81 °F /  27.2 °C 69.1 °F /  20.6 °C 29.9in /  1011.3hPa ENE 9.1mph /  14.7km/h 13mph /  20.9km/h 67% 0in /  0.0mm
21:04 80.8 °F /  27.1 °C 69.1 °F /  20.6 °C 29.9in /  1011.3hPa NE 8.1mph /  13km/h 13mph /  20.9km/h 67.5% 0in /  0.0mm
21:09 80.6 °F /  27 °C 69.1 °F /  20.6 °C 29.9in /  1011.3hPa NE 7.7mph /  12.4km/h 12mph /  19.3km/h 68% 0in /  0.0mm
21:14 80.4 °F /  26.9 °C 68.9 °F /  20.5 °C 29.9in /  1011.3hPa ENE 6.9mph /  11.1km/h 12.7mph /  20.4km/h 68% 0in /  0.0mm
21:19 80.2 °F /  26.8 °C 68.7 °F /  20.4 °C 29.9in /  1011.3hPa ENE 6.9mph /  11.1km/h 13mph /  20.9km/h 68% 0in /  0.0mm
21:24 80.2 °F /  26.8 °C 68.5 °F /  20.3 °C 29.9in /  1011.3hPa NE 6.9mph /  11.1km/h 12.7mph /  20.4km/h 68% 0in /  0.0mm
21:29 80.1 °F /  26.7 °C 68.5 °F /  20.3 °C 29.9in /  1011.3hPa NE 6.5mph /  10.5km/h 13mph /  20.9km/h 68% 0in /  0.0mm
21:34 80.1 °F /  26.7 °C 68.5 °F /  20.3 °C 29.9in /  1011.4hPa NE 5.9mph /  9.5km/h 10.7mph /  17.2km/h 68.2% 0in /  0.0mm
21:39 79.9 °F /  26.6 °C 68.9 °F /  20.5 °C 29.9in /  1011.4hPa NE 6.2mph /  10km/h 14.7mph /  23.7km/h 69.3% 0in /  0.0mm
21:44 79.9 °F /  26.6 °C 69.1 °F /  20.6 °C 29.9in /  1011.4hPa NE 6.9mph /  11.1km/h 15mph /  24.1km/h 70.1% 0in /  0.0mm
21:49 79.5 °F /  26.4 °C 69.4 °F /  20.8 °C 29.9in /  1011.7hPa NE 7.5mph /  12km/h 15.2mph /  24.5km/h 71.1% 0in /  0.0mm
21:54 79.3 °F /  26.3 °C 69.6 °F /  20.9 °C 29.9in /  1011.7hPa NE 8.5mph /  13.7km/h 15mph /  24.1km/h 72% 0in /  0.0mm
21:59 79.2 °F /  26.2 °C 69.6 °F /  20.9 °C 29.9in /  1011.7hPa NE 8.6mph /  13.8km/h 14mph /  22.5km/h 72.5% 0in /  0.0mm
22:04 79.2 °F /  26.2 °C 69.6 °F /  20.9 °C 29.9in /  1011.9hPa NE 8.7mph /  14km/h 14mph /  22.5km/h 72.8% 0in /  0.0mm
22:09 79.2 °F /  26.2 °C 69.6 °F /  20.9 °C 29.9in /  1011.9hPa NE 8.7mph /  14km/h 15mph /  24.1km/h 72.7% 0in /  0.0mm
22:14 79 °F /  26.1 °C 69.6 °F /  20.9 °C 29.9in /  1011.9hPa NE 8.7mph /  14km/h 15mph /  24.1km/h 73% 0in /  0.0mm
22:19 79 °F /  26.1 °C 68.5 °F /  20.3 °C 29.9in /  1012.0hPa NE 8.3mph /  13.3km/h 15mph /  24.1km/h 70.2% 0in /  0.0mm
22:24 79 °F /  26.1 °C 67.5 °F /  19.7 °C 29.9in /  1012.0hPa NE 7.4mph /  11.9km/h 12.7mph /  20.4km/h 67.9% 0in /  0.0mm
22:29 79.2 °F /  26.2 °C 67.6 °F /  19.8 °C 29.9in /  1012.0hPa NE 7.2mph /  11.6km/h 13mph /  20.9km/h 67.8% 0in /  0.0mm
22:34 79.2 °F /  26.2 °C 67.6 °F /  19.8 °C 29.9in /  1012.2hPa NE 6.9mph /  11.1km/h 13mph /  20.9km/h 68% 0in /  0.0mm
22:39 79 °F /  26.1 °C 67.5 °F /  19.7 °C 29.9in /  1012.2hPa NE 6.9mph /  11.1km/h 13mph /  20.9km/h 68% 0in /  0.0mm
22:44 79 °F /  26.1 °C 67.5 °F /  19.7 °C 29.9in /  1012.2hPa NE 6.9mph /  11.1km/h 11.5mph /  18.5km/h 68% 0in /  0.0mm
22:49 79 °F /  26.1 °C 67.5 °F /  19.7 °C 29.9in /  1012.4hPa NE 6.6mph /  10.6km/h 12mph /  19.3km/h 68.1% 0in /  0.0mm
22:54 78.8 °F /  26 °C 67.8 °F /  19.9 °C 29.9in /  1012.4hPa NE 5.9mph /  9.5km/h 11.4mph /  18.3km/h 69% 0in /  0.0mm
22:59 78.8 °F /  26 °C 68 °F /  20 °C 29.9in /  1012.4hPa NE 5.7mph /  9.2km/h 11mph /  17.7km/h 69.5% 0in /  0.0mm
23:04 78.8 °F /  26 °C 68.2 °F /  20.1 °C 29.9in /  1012.6hPa NE 5.4mph /  8.7km/h 9.7mph /  15.6km/h 70% 0in /  0.0mm
23:09 78.6 °F /  25.9 °C 68.4 °F /  20.2 °C 29.9in /  1012.6hPa NE 5.6mph /  9km/h 11.2mph /  18km/h 71% 0in /  0.0mm
23:14 78.4 °F /  25.8 °C 68.5 °F /  20.3 °C 29.9in /  1012.6hPa NE 5.9mph /  9.5km/h 12mph /  19.3km/h 71.5% 0in /  0.0mm
23:19 78.4 °F /  25.8 °C 68.7 °F /  20.4 °C 29.9in /  1012.7hPa NE 6.1mph /  9.8km/h 12mph /  19.3km/h 72.2% 0in /  0.0mm
23:24 78.3 °F /  25.7 °C 68.9 °F /  20.5 °C 29.9in /  1012.7hPa NE 6.4mph /  10.3km/h 10mph /  16.1km/h 73% 0in /  0.0mm
23:29 78.3 °F /  25.7 °C 68.9 °F /  20.5 °C 29.9in /  1012.7hPa NE 6.3mph /  10.2km/h 10.2mph /  16.4km/h 73.3% 0in /  0.0mm
23:34 78.1 °F /  25.6 °C 69.1 °F /  20.6 °C 29.9in /  1012.8hPa NE 6.2mph /  10km/h 10mph /  16.1km/h 74% 0in /  0.0mm
23:39 78.1 °F /  25.6 °C 69.1 °F /  20.6 °C 29.9in /  1012.8hPa NE 5.8mph /  9.4km/h 9.2mph /  14.8km/h 74% 0in /  0.0mm
23:44 77.9 °F /  25.5 °C 69.3 °F /  20.7 °C 29.9in /  1012.8hPa NE 5.2mph /  8.4km/h 9mph /  14.5km/h 74.7% 0in /  0.0mm
23:49 77.9 °F /  25.5 °C 69.3 °F /  20.7 °C 29.9in /  1012.8hPa NE 4.9mph /  7.9km/h 8.1mph /  13km/h 75% 0in /  0.0mm
23:54 77.7 °F /  25.4 °C 69.4 °F /  20.8 °C 29.9in /  1012.8hPa NE 4.3mph /  6.9km/h 8.1mph /  13km/h 75.7% 0in /  0.0mm
23:59 77.7 °F /  25.4 °C 69.4 °F /  20.8 °C 29.9in /  1012.8hPa NE 4.3mph /  6.9km/h 8mph /  12.9km/h 76% 0in /  0.0mm
Murcia-Puente Tocinos, España
Compliments of Weather Underground - 3 mb

La estación de MeteoMurcia.com, publica sus datos en los siguientes proyectos:

Weather Underground PWS IMURCIAP2 Meteoclimatic www.awekas.at

W3Counter
Web Analytics